Valentines, VA

6:53 PM EDT on May 25, 2017 (GMT -0400)
Windward Shores | | Change Station
Active Advisory: Flood Warning

Elev 213 ft 36.53 °N, 77.82 °W | Updated 27 seconds ago

Mostly Cloudy
Mostly Cloudy
59.9 °F
Feels Like 59.9 °F
N
0.0
Wind Variable Wind from WNW
Gusts 0.0 mph

Today
High -- | Low -- °F
--% Chance of Precip.
Yesterday
High -- | Low -- °F
Precip. -- in
Pressure 29.63 in
Visibility 10.0 miles
Clouds Scattered Clouds 7500 ft
Scattered Clouds 9000 ft
Dew Point 46 °F
Humidity 59%
Rainfall 0.97 in
Snow Depth Not available.
5:57 AM 8:19 PM
New Moon, 0% visible
METAR KAVC 252236Z AUTO 22008KT 10SM SCT075 SCT090 17/15 A2963 RMK AO2 LTG DSNT NE THRU SE T01660149
Pressure 29.63 in
Visibility 10.0 miles
Clouds Scattered Clouds 7500 ft
Scattered Clouds 9000 ft
Dew Point 46 °F
Humidity 59%
Rainfall 0.97 in
Snow Depth Not available.
5:57 AM 8:19 PM
New Moon, 0% visible
METAR KAVC 252236Z AUTO 22008KT 10SM SCT075 SCT090 17/15 A2963 RMK AO2 LTG DSNT NE THRU SE T01660149

Get Your Daily Forecast Email!

Thanks for signing up!

Be on the lookout for a verification email in your inbox.

You'll start receiving severe weather alerts in your inbox..

×

10-Day Weather Forecast

Almanac

Astronomy

May. 25, 2017 Rise Set
Actual Time
Civil Twilight
Nautical Twilight
Astronomical Twilight
Moon
Length of Visible Light
Length of Day
Tomorrow will be .
, % of the Moon is Illuminated

Today's Extremes

State Highs State Lows

Community

WunderPhotos

Category 6

Welcome to Category 6. This is the collective home for Weather Underground's featured writeups by Dr. Jeff Masters (right), Bob Henson (left), Chris Burt, and other regular contributors.

Nearby

Air Quality

  Air Quality AQ Index Pollutant
Not available.

Snow Depth

Station Depth Elevation

Earthquake Activity

City Distance Mag. Time & Date
Minimum magnitude displayed is 2.5.

Coastal Water Temperatures

Place Temperature

Stations

Nearby Weather Stations

Station Location Temp. Windchill Dew Point Humidity Wind Precip. Elev Updated Type
                   

Watches & Warnings

Flood Warning
Issued: 4:47 PM EDT May. 25, 2017 – National Weather Service

... The Flood Warning has been extended until Saturday morning... the
Flood Warning continues for
the Meherrin River at Lawrenceville
* from late tonight to Saturday morning... or until the warning is
cancelled.
* At 03:30 PM Thursday the stage was 10.8 feet.
* Minor flooding is forecast.
* Flood stage is 15.0 feet.
* Forecast... the river will continue rising to near 16.9 feet by
tomorrow early afternoon. The river will fall below flood stage
early Saturday morning.
* At 15.0 feet... pasture land north of the river, downstream of the
gage, begins to flood.
This river level is comparable to a previous crest of 15.1 feet on
Apr 26 2017.


Lat... Lon 3683 7802 3676 7756 3666 7757 3668 7783
      3666 7793 3672 7803